ADDS METAR Data INFO
IDs: Format: Raw Decoded Include TAF

Data at: 0049 UTC 22 Oct 2017

KGAG 212353Z AUTO 34019G27KT 10SM CLR 17/01 A2993 RMK AO2 PK WND 36028/2300 SLP120 T01670006 10250 20167 53030 $
KGAG 212253Z AUTO 35021G28KT 10SM CLR 20/03 A2989 RMK AO2 PK WND 34028/2251 SLP102 T02000028 $
KGAG 212153Z AUTO 36014G23KT 10SM CLR 22/03 A2985 RMK AO2 LTG DSNT E AND SE SLP088 T02220033 $
KGAG 212053Z AUTO 36015G21KT 10SM CLR 23/06 A2984 RMK AO2 LTG DSNT E AND SE SLP082 T02280056 53009 $
KGAG 211953Z AUTO 35015G21KT 10SM CLR 24/07 A2982 RMK AO2 SLP075 T02390072 $
KGAG 211853Z AUTO 32012G19KT 10SM CLR 24/12 A2981 RMK AO2 WSHFT 1754 SLP071 T02390117 $
KGAG 211814Z AUTO 29012KT 10SM FEW034 SCT045 BKN060 24/13 A2981 RMK AO2 WSHFT 1754 T02440133 $
KGAG 211753Z AUTO 26009G18KT 10SM SCT034 BKN043 BKN055 24/15 A2981 RMK AO2 SLP070 T02390150 10244 20172 53012 $
KGAG 211653Z AUTO 22017G22KT 10SM CLR 23/16 A2979 RMK AO2 PK WND 19026/1621 SLP065 T02330156
KGAG 211553Z AUTO 21017G25KT 10SM FEW021 21/16 A2979 RMK AO2 PK WND 18028/1458 SLP064 T02110156
KGAG 211453Z AUTO 19018G26KT 10SM FEW015 20/16 A2977 RMK AO2 PK WND 18027/1438 SLP059 T02000156 51019
KGAG 211442Z AUTO 20018G27KT 10SM SCT015 19/15 A2977 RMK AO2 PK WND 18027/1438 T01890150
KGAG 211353Z AUTO 20013KT 10SM OVC015 18/16 A2976 RMK AO2 SLP056 T01830156
KGAG 211313Z AUTO 24008KT 10SM BKN012 18/15 A2976 RMK AO2 T01780150
KGAG 211253Z AUTO 19015G24KT 10SM CLR 17/15 A2973 RMK AO2 PK WND 18031/1211 SLP046 T01720150
KGAG 211153Z AUTO 18021G29KT 10SM CLR 17/15 A2971 RMK AO2 PK WND 18033/1055 SLP041 T01720150 10194 20172 53003
KGAG 211053Z AUTO 18023G29KT 10SM CLR 18/15 A2971 RMK AO2 PK WND 18031/1029 SLP037 T01780150
KGAG 210953Z AUTO 18020G31KT 10SM CLR 18/16 A2969 RMK AO2 PK WND 18031/0907 SLP033 T01780156
KGAG 210853Z AUTO 18022G31KT 10SM CLR 18/16 A2970 RMK AO2 PK WND 17032/0820 SLP035 T01830156 58003
KGAG 210753Z AUTO 18022G28KT 10SM CLR 19/16 A2972 RMK AO2 PK WND 18034/0722 SLP041 T01890156
KGAG 210653Z AUTO 17022G34KT 10SM CLR 19/16 A2972 RMK AO2 PK WND 17034/0601 SLP040 T01940161
KGAG 210553Z AUTO 17026G35KT 10SM CLR 19/17 A2971 RMK AO2 PK WND 17038/0536 SLP039 T01940167 10228 20194 402440150 58006
KGAG 210453Z AUTO 17025G36KT 10SM CLR 20/16 A2973 RMK AO2 PK WND 17036/0450 SLP043 T02000161
KGAG 210353Z AUTO 17024G35KT 10SM CLR 21/16 A2974 RMK AO2 PK WND 17035/0353 SLP049 T02110156
KGAG 210253Z AUTO 17023G30KT 10SM CLR 22/14 A2973 RMK AO2 PK WND 18032/0211 SLP046 T02170139 51006
KGAG 210153Z AUTO 17023G30KT 10SM CLR 23/14 A2973 RMK AO2 PK WND 17030/0128 SLP047 T02280139
KGAG 210053Z AUTO 17016G24KT 10SM CLR 22/14 A2972 RMK AO2 PK WND 17028/0004 SLP046 T02220144
KGAG 202353Z AUTO 17020G26KT 10SM CLR 23/15 A2971 RMK AO2 PK WND 18036/2303 SLP041 T02280150 10244 20222 58015
KGAG 202253Z AUTO 18024G33KT 10SM CLR 24/14 A2974 RMK AO2 PK WND 17037/2207 SLP049 T02390144
KGAG 202153Z AUTO 18026G38KT 10SM CLR 23/15 A2975 RMK AO2 PK WND 17041/2115 SLP054 T02330150
KGAG 202053Z AUTO 17029G38KT 10SM CLR 24/14 A2976 RMK AO2 PK WND 18039/2022 SLP057 T02390144 56036
KGAG 201953Z AUTO 17028G38KT 10SM CLR 23/14 A2977 RMK AO2 PK WND 18038/1946 SLP061 T02330144
KGAG 201853Z AUTO 18021G31KT 10SM CLR 23/14 A2984 RMK AO2 PK WND 18034/1837 SLP083 T02330144
KGAG 201753Z AUTO 19025G32KT 10SM CLR 22/14 A2987 RMK AO2 PK WND 18036/1701 SLP095 T02220139 10233 20150 58015
KGAG 201653Z AUTO 18027G33KT 10SM CLR 23/14 A2989 RMK AO2 PK WND 19035/1641 SLP099 T02280144
KGAG 201553Z AUTO 18025G30KT 10SM FEW120 20/14 A2991 RMK AO2 PK WND 18031/1500 SLP110 T02000139
KGAG 201453Z AUTO 18026G32KT 10SM FEW120 19/13 A2992 RMK AO2 PK WND 18032/1447 SLP113 T01890133 55008
KGAG 201353Z AUTO 17019G26KT 10SM CLR 17/12 A2992 RMK AO2 PK WND 18027/1343 SLP113 T01720122
KGAG 201253Z AUTO 17015G23KT 10SM CLR 16/12 A2994 RMK AO2 SLP121 T01560117